Time;durP1;ratioP1;P1;durP2;ratioP2;P2;SDS_P1;SDS_P2;PMS_P1;PMS_P2;Temp;Humidity;BMP_temperature;BMP_pressure;BME280_temperature;BME280_humidity;BME280_pressure;Samples;Min_cycle;Max_cycle;Signal;HPM_P1;HPM_P2
2022/05/27 00:01:26;;;;;;;4.10;2.60;;;;;;;15.93;58.29;100566.89;1715101;83;21055;-91
2022/05/27 00:03:55;;;;;;;4.35;2.90;;;;;;;15.92;58.36;100567.00;1714962;83;21350;-91
2022/05/27 00:06:23;;;;;;;4.67;2.50;;;;;;;15.91;58.50;100566.63;1715048;83;21407;-91
2022/05/27 00:08:50;;;;;;;6.42;2.55;;;;;;;15.89;58.56;100563.20;1714860;83;21081;-91
2022/05/27 00:11:17;;;;;;;3.80;2.87;;;;;;;15.87;58.62;100563.28;1715277;83;21056;-92
2022/05/27 00:13:45;;;;;;;4.67;2.70;;;;;;;15.87;58.68;100559.31;1714966;83;21071;-91
2022/05/27 00:16:13;;;;;;;4.83;2.37;;;;;;;15.85;58.77;100547.97;1715061;83;21156;-91
2022/05/27 00:18:40;;;;;;;3.90;2.40;;;;;;;15.86;58.87;100549.69;1714810;83;21015;-91
2022/05/27 00:21:09;;;;;;;5.40;2.83;;;;;;;15.87;58.95;100541.28;1715168;83;21004;-92
2022/05/27 00:23:39;;;;;;;3.77;2.27;;;;;;;15.86;59.07;100539.59;1715118;83;21004;-90
2022/05/27 00:26:06;;;;;;;5.05;2.17;;;;;;;15.86;59.14;100533.83;1715146;83;21016;-92
2022/05/27 00:28:33;;;;;;;6.30;2.70;;;;;;;15.86;59.18;100535.63;1715181;83;21942;-90
2022/05/27 00:31:00;;;;;;;3.45;2.30;;;;;;;15.85;59.26;100529.47;1715004;83;21486;-82
2022/05/27 00:33:27;;;;;;;3.83;2.47;;;;;;;15.84;59.31;100528.63;1714858;83;21056;-89
2022/05/27 00:35:54;;;;;;;3.75;2.22;;;;;;;15.84;59.36;100525.13;1715107;83;21031;-91
2022/05/27 00:38:21;;;;;;;5.37;2.50;;;;;;;15.83;59.45;100522.12;1715151;83;21349;-91
2022/05/27 00:40:52;;;;;;;6.03;2.37;;;;;;;15.82;59.54;100522.59;1714844;83;21130;-91
2022/05/27 00:43:20;;;;;;;5.62;2.52;;;;;;;15.83;59.57;100517.67;1715105;83;21055;-91
2022/05/27 00:45:55;;;;;;;4.45;2.58;;;;;;;15.82;59.65;100512.47;1715226;83;21000;-91
2022/05/27 00:48:22;;;;;;;5.37;2.50;;;;;;;15.82;59.69;100514.66;1714160;83;21574;-90
2022/05/27 00:50:51;;;;;;;5.55;2.40;;;;;;;15.81;59.73;100508.97;1715088;83;21012;-92
2022/05/27 00:53:32;;;;;;;5.67;2.55;;;;;;;15.79;59.78;100508.68;1714940;83;21130;-91
2022/05/27 00:56:01;;;;;;;4.28;2.20;;;;;;;15.78;59.89;100503.88;1694706;82;21063;-92
2022/05/27 00:58:51;;;;;;;6.35;2.22;;;;;;;15.79;60.00;100510.00;1714794;83;21067;-91
2022/05/27 01:01:18;;;;;;;;;;;;;;;15.81;60.07;100502.84;1718048;83;21031;-87
2022/05/27 01:03:46;;;;;;;3.52;2.10;;;;;;;15.83;60.21;100500.98;1705866;82;20499;-86
2022/05/27 01:06:13;;;;;;;2.87;1.82;;;;;;;15.84;60.13;100496.91;1704386;83;21088;-89
2022/05/27 01:08:42;;;;;;;2.60;1.92;;;;;;;15.87;60.10;100496.36;1704502;84;21044;-90
2022/05/27 01:11:35;;;;;;;2.85;1.87;;;;;;;15.89;60.16;100495.80;1704461;84;21028;-93
2022/05/27 01:14:20;;;;;;;4.03;2.10;;;;;;;15.92;60.25;100487.70;1704512;84;21060;-91
2022/05/27 01:17:28;;;;;;;4.08;1.85;;;;;;;15.94;60.21;100485.82;1704457;84;21024;-90
2022/05/27 01:20:23;;;;;;;3.12;1.77;;;;;;;15.95;60.17;100487.04;1568119;89;21149;-92
2022/05/27 01:23:15;;;;;;;5.50;2.02;;;;;;;15.95;60.17;100472.50;1610441;89;21085;-90
2022/05/27 01:26:31;;;;;;;3.85;1.92;;;;;;;15.95;60.21;100467.21;1610119;89;21054;-90
2022/05/27 01:29:19;;;;;;;4.45;2.10;;;;;;;15.96;60.15;100468.05;1609723;88;22183;-89
2022/05/27 01:32:08;;;;;;;2.17;1.60;;;;;;;15.96;60.20;100463.65;1607314;88;21532;-90
2022/05/27 01:34:46;;;;;;;4.15;1.85;;;;;;;15.96;60.23;100459.68;1609588;87;22198;-90
2022/05/27 01:37:29;;;;;;;5.00;1.80;;;;;;;15.96;60.12;100448.23;1609515;88;21106;-91
2022/05/27 01:40:23;;;;;;;3.08;1.57;;;;;;;15.95;60.11;100452.67;1563802;91;21166;-88
2022/05/27 01:43:16;;;;;;;3.00;1.70;;;;;;;15.94;60.09;100452.78;1622373;85;21024;-91
2022/05/27 01:45:51;;;;;;;2.17;1.55;;;;;;;15.92;60.10;100448.05;1598692;89;21306;-91
2022/05/27 01:48:36;;;;;;;4.65;1.70;;;;;;;15.91;60.17;100437.95;1598365;89;21152;-89
2022/05/27 01:51:11;;;;;;;3.47;1.70;;;;;;;15.91;60.19;100433.98;1598678;89;21002;-90
2022/05/27 01:53:47;;;;;;;2.75;1.75;;;;;;;15.92;60.11;100438.31;1598429;89;21070;-90
2022/05/27 01:56:21;;;;;;;6.58;1.70;;;;;;;15.92;60.10;100430.86;1630147;85;21059;-89
2022/05/27 01:58:54;;;;;;;2.37;1.80;;;;;;;15.92;60.08;100428.22;1685645;85;22021;-91
2022/05/27 02:01:29;;;;;;;3.67;1.60;;;;;;;15.93;60.07;100420.18;1685459;85;21149;-90
2022/05/27 02:04:10;;;;;;;3.40;1.87;;;;;;;15.93;60.03;100422.83;1684256;83;21092;-91
2022/05/27 02:06:45;;;;;;;4.15;1.60;;;;;;;15.94;60.00;100418.41;1683357;83;21066;-90
2022/05/27 02:09:26;;;;;;;2.87;1.42;;;;;;;15.96;59.99;100413.42;1683954;84;21031;-87
2022/05/27 02:11:59;;;;;;;2.87;1.42;;;;;;;15.98;59.93;100407.55;1684403;85;21067;-89
2022/05/27 02:14:52;;;;;;;3.65;1.42;;;;;;;16.01;59.92;100402.08;1684209;85;21128;-92
2022/05/27 02:17:30;;;;;;;3.33;1.45;;;;;;;16.03;59.84;100398.03;1683549;84;21023;-91
2022/05/27 02:20:08;;;;;;;3.77;1.42;;;;;;;16.04;59.79;100399.72;1711137;82;20996;-89
2022/05/27 02:22:41;;;;;;;2.47;1.40;;;;;;;16.07;59.74;100404.83;1743176;81;20920;-89
2022/05/27 02:25:25;;;;;;;3.27;1.32;;;;;;;16.10;59.73;100397.18;1744386;82;20996;-87
2022/05/27 02:27:56;;;;;;;2.70;1.15;;;;;;;16.10;59.67;100394.53;1735473;81;21052;-91
2022/05/27 02:30:29;;;;;;;3.47;1.40;;;;;;;16.12;59.64;100388.69;1743991;82;21050;-90
2022/05/27 02:35:50;;;;;;;2.87;1.40;;;;;;;16.13;59.56;100382.00;1744410;82;21039;-91
2022/05/27 02:38:18;;;;;;;3.83;1.20;;;;;;;16.15;59.54;100373.48;1744078;82;21624;-90
2022/05/27 02:41:13;;;;;;;3.40;1.22;;;;;;;16.17;59.51;100369.44;1744518;82;21101;-89
2022/05/27 02:43:49;;;;;;;3.70;1.20;;;;;;;16.19;59.47;100375.02;1727547;82;21702;-90
2022/05/27 02:46:33;;;;;;;2.80;1.20;;;;;;;16.20;59.44;100375.38;1739180;81;20992;-91
2022/05/27 02:49:27;;;;;;;2.85;1.37;;;;;;;16.21;59.40;100382.84;1743960;81;21035;-91
2022/05/27 02:52:08;;;;;;;2.92;1.27;;;;;;;16.23;59.35;100373.02;1744109;81;21098;-87
2022/05/27 02:54:50;;;;;;;3.52;1.55;;;;;;;16.28;59.35;100364.34;1743262;82;21096;-89
2022/05/27 02:57:49;;;;;;;4.40;1.30;;;;;;;16.30;59.25;100365.11;1744246;82;21525;-80
2022/05/27 03:00:21;;;;;;;2.30;1.20;;;;;;;16.33;59.21;100363.59;1744212;82;21001;-88
2022/05/27 03:02:49;;;;;;;2.72;1.27;;;;;;;16.37;59.15;100376.15;1746210;81;20991;-88
2022/05/27 03:05:21;;;;;;;3.33;1.20;;;;;;;16.42;59.10;100366.14;1754399;81;21046;-86
2022/05/27 03:08:12;;;;;;;2.35;1.17;;;;;;;16.46;59.05;100372.48;1754401;79;21124;-88
2022/05/27 03:10:51;;;;;;;2.35;1.10;;;;;;;16.52;58.95;100363.31;1685062;84;21672;-80
2022/05/27 03:13:50;;;;;;;2.65;0.90;;;;;;;16.57;58.85;100353.73;1681345;85;21052;-87
2022/05/27 03:16:34;;;;;;;4.60;1.30;;;;;;;16.64;58.59;100340.52;1695996;83;20984;-89
2022/05/27 03:19:36;;;;;;;2.95;1.15;;;;;;;16.64;58.59;100340.52;1695236;84;21091;-86
2022/05/27 03:22:44;;;;;;;1.55;1.20;;;;;;;16.67;58.58;100342.96;1695534;84;21277;-86
2022/05/27 03:25:29;;;;;;;2.67;1.00;;;;;;;16.70;58.53;100351.55;1695661;84;20960;-89
2022/05/27 03:28:10;;;;;;;2.20;1.10;;;;;;;16.73;58.46;100334.14;1695067;84;21114;-89
2022/05/27 03:31:01;;;;;;;2.40;1.07;;;;;;;16.76;58.39;100341.05;1681568;84;21173;-88
2022/05/27 03:33:51;;;;;;;2.83;1.10;;;;;;;16.77;58.34;100341.95;1700614;83;21611;-88
2022/05/27 03:36:37;;;;;;;1.10;1.00;;;;;;;16.79;58.30;100349.30;1718569;83;21114;-82
2022/05/27 03:39:21;;;;;;;2.22;1.05;;;;;;;16.82;58.25;100343.80;1694655;84;21637;-83
2022/05/27 03:41:53;;;;;;;3.47;1.20;;;;;;;16.82;58.20;100335.86;1677436;85;21095;-81
2022/05/27 03:44:26;;;;;;;2.25;1.10;;;;;;;16.83;58.17;100339.75;1677881;85;21567;-84
2022/05/27 03:46:52;;;;;;;3.27;1.20;;;;;;;16.86;58.13;100342.67;1681106;83;21537;-87
2022/05/27 03:49:19;;;;;;;3.83;1.00;;;;;;;16.87;58.12;100337.75;1707902;83;21132;-88
2022/05/27 03:52:06;;;;;;;2.17;0.82;;;;;;;16.88;58.08;100339.47;1707834;83;21096;-81
2022/05/27 03:54:33;;;;;;;3.70;1.12;;;;;;;16.90;58.08;100342.39;1706868;83;21066;-86
2022/05/27 03:57:01;;;;;;;4.87;1.10;;;;;;;16.91;58.11;100344.08;1707625;83;21042;-85
2022/05/27 03:59:28;;;;;;;3.20;1.40;;;;;;;16.88;58.23;100344.77;1707122;83;21027;-81
2022/05/27 04:01:56;;;;;;;2.45;0.93;;;;;;;16.83;58.29;100341.07;1707603;83;21118;-82
2022/05/27 04:04:28;;;;;;;3.83;1.40;;;;;;;16.79;58.34;100346.17;1689772;83;21099;-88
2022/05/27 04:06:56;;;;;;;3.45;0.90;;;;;;;16.76;58.51;100342.84;1676890;85;21064;-87
2022/05/27 04:09:25;;;;;;;3.45;1.20;;;;;;;16.70;58.88;100340.12;1676902;85;21060;-88
2022/05/27 04:11:54;;;;;;;2.87;1.10;;;;;;;16.60;59.15;100337.66;1680165;83;21086;-87
2022/05/27 04:14:21;;;;;;;2.45;1.20;;;;;;;16.49;59.39;100343.66;1704181;83;21123;-88
2022/05/27 04:16:48;;;;;;;2.95;1.10;;;;;;;16.39;59.66;100342.52;1748473;80;21035;-86
2022/05/27 04:19:17;;;;;;;2.10;0.98;;;;;;;16.30;60.02;100349.72;1760870;81;21581;-89
2022/05/27 04:21:44;;;;;;;3.83;1.37;;;;;;;16.20;60.37;100347.61;1760131;81;21021;-87
2022/05/27 04:24:11;;;;;;;1.80;0.98;;;;;;;16.15;60.96;100350.16;1743173;81;21003;-88
2022/05/27 04:26:38;;;;;;;2.95;1.27;;;;;;;16.10;61.27;100354.43;1728913;83;22005;-88
2022/05/27 04:29:05;;;;;;;2.42;1.15;;;;;;;16.06;61.63;100354.22;1729134;83;20999;-86
2022/05/27 04:31:33;;;;;;;1.52;1.00;;;;;;;16.04;62.00;100351.66;1728800;83;21066;-85
2022/05/27 04:34:00;;;;;;;2.42;1.27;;;;;;;16.03;62.47;100351.77;1728794;83;21003;-87
2022/05/27 04:36:27;;;;;;;2.87;1.17;;;;;;;15.99;62.62;100350.23;1729110;83;21630;-86
2022/05/27 04:38:53;;;;;;;3.22;1.30;;;;;;;15.98;62.98;100354.67;1729098;83;21124;-86
2022/05/27 04:41:23;;;;;;;3.15;1.15;;;;;;;15.95;63.43;100354.86;1728883;83;21568;-86
2022/05/27 04:43:49;;;;;;;3.67;1.50;;;;;;;15.96;63.47;100362.31;1729050;83;21062;-85
2022/05/27 04:46:16;;;;;;;3.02;1.15;;;;;;;15.91;63.79;100362.61;1728812;83;21477;-85
2022/05/27 04:48:43;;;;;;;1.92;1.30;;;;;;;15.88;63.96;100364.56;1728983;83;21094;-85
2022/05/27 04:51:10;;;;;;;2.60;1.30;;;;;;;15.83;64.09;100372.31;1729002;83;21935;-85
2022/05/27 04:53:37;;;;;;;4.75;1.75;;;;;;;15.79;64.49;100384.47;1729031;83;21047;-85
2022/05/27 04:56:04;;;;;;;4.62;1.50;;;;;;;15.73;64.74;100378.23;1728971;83;21536;-85
2022/05/27 04:58:31;;;;;;;4.35;1.42;;;;;;;15.68;65.12;100385.09;1728659;83;21500;-86
2022/05/27 05:01:05;;;;;;;5.12;1.87;;;;;;;15.64;65.50;100388.84;1728947;83;21086;-86
2022/05/27 05:03:38;;;;;;;4.40;2.02;;;;;;;15.58;65.52;100391.84;1725937;82;21256;-90
2022/05/27 05:06:07;;;;;;;2.85;1.82;;;;;;;15.48;66.07;100397.27;1718923;83;21031;-89
2022/05/27 05:08:40;;;;;;;5.92;2.62;;;;;;;15.38;66.55;100401.77;1716917;83;21039;-90
2022/05/27 05:11:07;;;;;;;5.42;2.62;;;;;;;15.27;66.75;100405.48;1719260;83;21023;-90
2022/05/27 05:13:35;;;;;;;6.78;2.75;;;;;;;15.10;67.21;100413.03;1719099;83;21134;-86
2022/05/27 05:16:04;;;;;;;6.15;2.90;;;;;;;14.95;67.63;100406.80;1719162;83;21099;-86
2022/05/27 05:18:31;;;;;;;8.80;2.83;;;;;;;14.85;68.55;100403.42;1719037;83;21575;-88
2022/05/27 05:20:59;;;;;;;5.70;2.83;;;;;;;14.73;69.20;100404.47;1719463;83;21099;-88
2022/05/27 05:23:26;;;;;;;6.12;2.52;;;;;;;14.63;69.53;100401.97;1719123;83;21008;-87
2022/05/27 05:25:52;;;;;;;6.45;2.75;;;;;;;14.53;69.80;100398.11;1719503;83;21086;-90
2022/05/27 05:28:20;;;;;;;3.35;2.35;;;;;;;14.46;70.67;100400.64;1719236;83;21115;-85
2022/05/27 05:30:47;;;;;;;7.30;2.50;;;;;;;14.41;70.96;100395.64;1719485;83;21102;-90
2022/05/27 05:33:14;;;;;;;7.20;3.30;;;;;;;14.36;71.26;100397.66;1719168;83;21516;-86
2022/05/27 05:35:41;;;;;;;5.28;3.58;;;;;;;14.31;71.56;100402.79;1719134;83;21117;-86
2022/05/27 05:38:09;;;;;;;6.28;3.40;;;;;;;14.25;72.19;100398.69;1719011;83;21007;-86
2022/05/27 05:40:36;;;;;;;6.25;4.15;;;;;;;14.22;72.43;100400.17;1719100;83;21122;-86
2022/05/27 05:43:03;;;;;;;5.72;3.52;;;;;;;14.19;72.78;100398.98;1719161;83;21051;-87
2022/05/27 05:45:30;;;;;;;5.75;3.15;;;;;;;14.17;73.11;100403.51;1719085;83;21078;-86
2022/05/27 05:47:57;;;;;;;5.92;3.05;;;;;;;14.16;73.34;100394.75;1719099;83;21000;-87
2022/05/27 05:50:24;;;;;;;7.30;2.83;;;;;;;14.12;73.48;100394.52;1719416;83;21073;-87
2022/05/27 05:52:52;;;;;;;3.42;2.52;;;;;;;14.09;73.75;100400.42;1719237;83;21050;-87
2022/05/27 05:55:19;;;;;;;4.42;2.50;;;;;;;14.06;74.04;100396.16;1719029;83;21036;-86
2022/05/27 05:57:49;;;;;;;4.58;2.50;;;;;;;14.05;74.25;100394.45;1719309;83;20924;-85
2022/05/27 06:00:24;;;;;;;3.47;2.40;;;;;;;14.04;74.66;100398.85;1719243;83;21000;-87
2022/05/27 06:02:51;;;;;;;4.00;2.45;;;;;;;14.02;74.87;100400.73;1719228;83;21103;-86
2022/05/27 06:05:19;;;;;;;4.22;2.27;;;;;;;14.02;75.43;100399.42;1719121;81;21096;-83
2022/05/27 06:07:46;;;;;;;4.03;2.10;;;;;;;14.03;75.39;100391.05;1719366;83;21455;-83
2022/05/27 06:10:16;;;;;;;3.55;1.82;;;;;;;14.02;75.44;100398.55;1719191;83;21032;-83
2022/05/27 06:12:43;;;;;;;2.85;1.82;;;;;;;14.02;75.63;100397.22;1719350;83;21059;-82
2022/05/27 06:15:13;;;;;;;2.47;1.55;;;;;;;14.01;75.70;100398.17;1719613;83;21000;-85
2022/05/27 06:17:40;;;;;;;2.30;1.50;;;;;;;13.97;75.68;100396.16;1719498;83;21896;-90
2022/05/27 06:20:08;;;;;;;1.90;1.35;;;;;;;13.96;75.91;100398.86;1718673;83;21106;-87
2022/05/27 06:22:35;;;;;;;3.37;1.42;;;;;;;13.92;76.09;100399.49;1719254;83;21005;-84
2022/05/27 06:25:03;;;;;;;1.15;0.95;;;;;;;13.91;76.34;100405.70;1719206;83;21047;-85
2022/05/27 06:27:30;;;;;;;1.62;1.10;;;;;;;13.90;76.25;100407.93;1717696;83;21110;-91
2022/05/27 06:35:27;;;;;;;1.98;0.90;;;;;;;13.71;76.52;100404.52;1608816;87;21090;-83
2022/05/27 06:37:54;;;;;;;2.37;1.10;;;;;;;13.65;76.62;100402.20;1664247;84;21114;-83
2022/05/27 06:40:21;;;;;;;2.27;1.20;;;;;;;13.61;76.85;100405.45;1739385;82;21569;-80
2022/05/27 06:42:48;;;;;;;3.90;1.80;;;;;;;13.54;77.12;100404.89;1739580;82;21171;-84
2022/05/27 06:45:18;;;;;;;3.95;1.92;;;;;;;13.48;76.97;100398.61;1739164;82;20997;-86
2022/05/27 06:47:45;;;;;;;2.70;1.60;;;;;;;13.43;77.56;100400.61;1739545;82;21555;-81
2022/05/27 06:50:12;;;;;;;6.15;2.35;;;;;;;13.37;77.40;100410.98;1739447;82;21001;-83
2022/05/27 06:52:40;;;;;;;3.62;2.02;;;;;;;13.33;77.58;100406.80;1739901;82;21024;-85
2022/05/27 06:55:11;;;;;;;3.27;1.90;;;;;;;13.32;78.28;100398.97;1739463;82;21120;-84
2022/05/27 06:57:39;;;;;;;3.02;1.62;;;;;;;13.33;78.35;100399.34;1737959;82;21050;-87
2022/05/27 07:00:10;;;;;;;4.12;2.45;;;;;;;13.30;78.25;100399.50;1739371;82;21072;-84
2022/05/27 07:02:37;;;;;;;3.72;1.85;;;;;;;13.27;78.14;100398.33;1710180;82;21044;-82
2022/05/27 07:05:05;;;;;;;4.33;1.92;;;;;;;13.21;78.10;100394.66;1744555;82;21039;-82
2022/05/27 07:07:32;;;;;;;5.53;1.60;;;;;;;13.17;78.16;100393.95;1747557;82;21482;-82
2022/05/27 07:10:01;;;;;;;3.77;1.52;;;;;;;13.11;78.39;100382.41;1747513;82;21052;-81
2022/05/27 07:12:29;;;;;;;4.12;1.77;;;;;;;13.08;78.31;100391.30;1747497;82;21012;-82
2022/05/27 07:14:56;;;;;;;3.92;1.42;;;;;;;13.00;77.94;100376.78;1747706;82;21027;-85
2022/05/27 07:17:23;;;;;;;4.08;1.80;;;;;;;12.92;78.24;100365.33;1747440;82;21496;-80
2022/05/27 07:19:50;;;;;;;5.35;1.90;;;;;;;12.87;78.53;100375.20;1747644;82;21109;-80
2022/05/27 07:22:17;;;;;;;8.35;2.72;;;;;;;12.87;79.07;100382.63;1747497;82;21086;-83
2022/05/27 07:24:44;;;;;;;4.08;1.82;;;;;;;12.91;79.35;100378.07;1747772;82;21086;-81
2022/05/27 07:27:11;;;;;;;3.92;1.98;;;;;;;12.94;79.79;100384.06;1747404;82;21032;-80
2022/05/27 07:29:38;;;;;;;4.37;2.15;;;;;;;12.98;79.84;100372.92;1747672;82;21087;-84
2022/05/27 07:32:05;;;;;;;4.70;2.12;;;;;;;13.01;79.96;100378.50;1759907;80;21259;-86
2022/05/27 07:34:32;;;;;;;4.20;2.42;;;;;;;13.04;80.20;100379.67;1763829;80;20963;-80
2022/05/27 07:37:00;;;;;;;4.15;2.27;;;;;;;13.09;80.57;100373.73;1775196;79;21000;-87
2022/05/27 07:39:28;;;;;;;3.85;2.27;;;;;;;13.12;80.41;100369.16;1775168;80;21095;-81
2022/05/27 07:41:55;;;;;;;3.75;1.80;;;;;;;13.15;80.36;100372.11;1779480;80;21219;-81
2022/05/27 07:44:22;;;;;;;5.22;1.80;;;;;;;13.20;80.36;100365.33;1779719;80;21493;-82
2022/05/27 07:46:53;;;;;;;3.83;1.92;;;;;;;13.24;80.32;100366.39;1774258;80;21039;-84
2022/05/27 07:49:21;;;;;;;7.90;1.40;;;;;;;13.29;80.27;100359.63;1778886;80;21001;-81
2022/05/27 07:51:48;;;;;;;2.22;1.12;;;;;;;13.33;80.54;100349.33;1778976;79;21047;-82
2022/05/27 07:54:15;;;;;;;1.80;1.10;;;;;;;13.37;80.36;100347.80;1779038;80;21068;-85
2022/05/27 07:56:43;;;;;;;2.95;1.10;;;;;;;13.37;79.86;100345.16;1779849;80;21533;-80
2022/05/27 07:59:10;;;;;;;2.25;1.10;;;;;;;13.40;79.94;100354.69;1779295;80;22116;-85
2022/05/27 08:01:37;;;;;;;1.72;1.00;;;;;;;13.40;80.02;100363.91;1771312;80;21512;-80
2022/05/27 08:04:05;;;;;;;1.92;1.22;;;;;;;13.39;79.64;100360.90;1749473;80;21043;-80
2022/05/27 08:06:33;;;;;;;3.50;1.77;;;;;;;13.38;79.87;100367.95;1754377;81;21078;-80
2022/05/27 08:09:00;;;;;;;2.75;1.40;;;;;;;13.37;79.75;100371.48;1754429;81;21923;-80
2022/05/27 08:11:26;;;;;;;2.95;1.10;;;;;;;13.37;79.74;100366.69;1754302;80;21031;-81
2022/05/27 08:13:55;;;;;;;2.87;1.30;;;;;;;13.39;79.76;100364.84;1754505;81;21011;-82
2022/05/27 08:16:23;;;;;;;3.87;1.80;;;;;;;13.41;79.85;100362.97;1754338;81;20995;-81
2022/05/27 08:18:50;;;;;;;3.45;1.25;;;;;;;13.45;80.08;100363.22;1754440;80;21035;-82
2022/05/27 08:21:17;;;;;;;2.15;1.12;;;;;;;13.47;80.09;100356.55;1754432;80;21505;-82
2022/05/27 08:23:44;;;;;;;4.92;1.62;;;;;;;13.51;80.27;100366.86;1754396;81;21011;-81
2022/05/27 08:26:12;;;;;;;2.50;1.47;;;;;;;13.53;80.41;100365.48;1754301;81;21051;-82
2022/05/27 08:28:39;;;;;;;4.00;1.40;;;;;;;13.56;80.37;100366.17;1754427;80;21561;-81
2022/05/27 08:31:06;;;;;;;3.55;1.72;;;;;;;13.58;80.35;100378.81;1754484;81;20995;-81
2022/05/27 08:39:10;;;;;;;;;;;;;;;13.59;80.41;100387.09;1757124;81;21015;-82
2022/05/27 08:42:07;;;;;;;2.72;1.50;;;;;;;13.57;80.89;100394.20;1754258;81;20159;-82
2022/05/27 08:44:43;;;;;;;3.40;2.12;;;;;;;13.58;81.07;100405.14;1754622;81;21051;-84
2022/05/27 08:47:35;;;;;;;3.37;1.42;;;;;;;13.61;81.06;100415.98;1753526;81;21095;-83
2022/05/27 08:50:29;;;;;;;2.85;1.67;;;;;;;13.61;81.30;100429.16;1754316;81;20924;-84
2022/05/27 08:53:20;;;;;;;2.55;1.42;;;;;;;13.54;80.87;100423.80;1754294;81;21090;-85
2022/05/27 09:01:42;;;;;;;5.05;1.40;;;;;;;13.08;80.12;100424.20;1754325;81;21489;-84
2022/05/27 09:04:38;;;;;;;5.37;1.27;;;;;;;12.95;80.30;100419.95;1754025;81;21023;-85
2022/05/27 09:07:37;;;;;;;2.90;0.88;;;;;;;12.87;80.65;100422.56;1719536;83;21142;-85
2022/05/27 09:10:15;;;;;;;4.87;1.10;;;;;;;12.79;80.81;100420.73;1756293;81;21051;-84
2022/05/27 09:13:06;;;;;;;2.20;1.00;;;;;;;12.71;81.39;100429.82;1756086;81;21327;-85
2022/05/27 09:15:41;;;;;;;6.03;1.35;;;;;;;12.70;81.96;100429.91;1756248;81;21196;-82
2022/05/27 09:18:22;;;;;;;1.67;1.15;;;;;;;12.71;82.35;100423.25;1719582;83;21055;-83
2022/05/27 09:21:25;;;;;;;1.70;1.50;;;;;;;12.75;82.85;100421.79;1718041;83;21087;-82
2022/05/27 09:24:20;;;;;;;2.80;1.15;;;;;;;12.77;83.21;100422.11;1719455;83;21457;-83
2022/05/27 09:27:07;;;;;;;3.05;1.10;;;;;;;12.78;83.39;100419.05;1719229;83;21039;-84
2022/05/27 09:30:10;;;;;;;1.77;0.85;;;;;;;12.71;82.85;100412.73;1698758;83;21181;-88
2022/05/27 09:32:54;;;;;;;2.25;1.35;;;;;;;12.70;83.19;100413.66;1690945;84;21588;-90
2022/05/27 09:35:53;;;;;;;5.40;1.30;;;;;;;12.68;83.65;100415.50;1726830;82;21079;-92
2022/05/27 09:38:27;;;;;;;2.52;1.22;;;;;;;12.71;83.81;100407.94;1704214;82;21078;-83
2022/05/27 09:41:02;;;;;;;2.87;1.25;;;;;;;12.70;83.78;100397.88;1698990;84;21129;-88
2022/05/27 09:43:58;;;;;;;2.17;1.20;;;;;;;12.67;83.90;100396.71;1698975;84;21112;-82
2022/05/27 09:46:29;;;;;;;2.65;1.32;;;;;;;12.64;83.73;100400.80;1696568;84;21069;-85
2022/05/27 09:48:59;;;;;;;4.83;1.55;;;;;;;12.62;83.96;100379.44;1698146;84;21119;-88
2022/05/27 09:51:30;;;;;;;1.30;1.12;;;;;;;12.58;83.83;100391.00;1697296;84;21094;-86
2022/05/27 09:54:12;;;;;;;2.83;1.12;;;;;;;12.52;84.00;100404.44;1697612;84;21027;-86
2022/05/27 09:56:43;;;;;;;2.50;1.30;;;;;;;12.50;84.15;100408.47;1697707;83;21259;-85
2022/05/27 09:59:28;;;;;;;3.08;1.40;;;;;;;12.55;84.64;100407.77;1695275;84;21106;-84
2022/05/27 10:02:27;;;;;;;3.70;1.45;;;;;;;12.59;84.66;100418.55;1692655;84;21495;-86
2022/05/27 10:05:05;;;;;;;1.27;1.17;;;;;;;12.58;84.59;100405.47;1702615;81;21138;-83
2022/05/27 10:07:45;;;;;;;4.30;1.60;;;;;;;12.59;84.62;100361.17;1752767;81;21489;-88
2022/05/27 10:10:35;;;;;;;3.87;1.50;;;;;;;12.58;84.69;100389.25;1758750;81;21147;-86
2022/05/27 10:13:24;;;;;;;2.87;1.40;;;;;;;12.61;85.05;100417.16;1756450;81;21046;-83
2022/05/27 10:15:51;;;;;;;3.98;1.40;;;;;;;12.62;85.05;100414.47;1760427;81;21018;-86
2022/05/27 10:18:25;;;;;;;3.55;1.80;;;;;;;12.62;85.05;100409.67;1761207;81;20992;-92
2022/05/27 10:21:01;;;;;;;4.10;1.90;;;;;;;12.64;85.25;100416.58;1761295;81;20991;-89
2022/05/27 10:23:33;;;;;;;3.08;2.10;;;;;;;12.68;85.42;100416.81;1761194;81;21193;-90
2022/05/27 10:26:22;;;;;;;3.33;1.80;;;;;;;12.69;85.23;100425.11;1760914;81;22220;-87
2022/05/27 10:29:10;;;;;;;3.62;1.90;;;;;;;12.70;85.34;100430.75;1748190;81;21055;-80
2022/05/27 10:31:40;;;;;;;4.47;1.80;;;;;;;12.76;85.71;100410.36;1761070;81;21074;-81
2022/05/27 10:34:07;;;;;;;2.90;2.02;;;;;;;12.82;85.72;100393.83;1766443;80;21087;-80
2022/05/27 10:36:59;;;;;;;3.45;1.75;;;;;;;12.85;85.61;100404.20;1790872;80;21113;-79
2022/05/27 10:39:47;;;;;;;3.72;1.95;;;;;;;12.88;85.61;100398.80;1788295;79;21008;-80
2022/05/27 10:42:28;;;;;;;3.27;1.65;;;;;;;12.92;85.72;100371.91;1772325;80;21016;-79
2022/05/27 10:45:16;;;;;;;2.65;1.75;;;;;;;12.92;85.25;100375.85;1745374;81;21044;-81
2022/05/27 10:48:13;;;;;;;2.40;1.50;;;;;;;12.90;85.07;100394.32;1739436;81;21047;-81
2022/05/27 10:51:07;;;;;;;3.55;1.60;;;;;;;12.87;85.09;100391.84;1751830;81;21084;-80
2022/05/27 10:54:14;;;;;;;3.37;1.55;;;;;;;12.88;85.26;100398.80;1740727;81;21122;-80
2022/05/27 11:03:14;;;;;;;3.35;1.70;;;;;;;12.90;85.35;100399.58;1715859;83;21061;-80
2022/05/27 11:05:46;;;;;;;2.95;1.50;;;;;;;12.95;85.42;100392.80;1698132;82;21940;-80
2022/05/27 11:08:33;;;;;;;2.37;1.30;;;;;;;12.97;85.39;100394.91;1715668;83;21067;-80
2022/05/27 11:11:23;;;;;;;3.58;1.40;;;;;;;13.04;85.41;100401.57;1703475;83;21052;-80
2022/05/27 11:17:17;;;;;;;4.85;1.30;;;;;;;13.13;85.06;100404.22;1746459;81;20538;-80
2022/05/27 11:19:56;;;;;;;2.12;1.20;;;;;;;13.21;85.13;100406.03;1746088;82;21088;-79
2022/05/27 11:22:44;;;;;;;3.45;1.40;;;;;;;13.31;85.00;100394.17;1711963;82;21528;-79
2022/05/27 11:25:50;;;;;;;2.65;1.27;;;;;;;13.46;85.08;100385.13;1744841;80;21055;-80
2022/05/27 11:28:31;;;;;;;4.05;1.15;;;;;;;13.60;84.55;100378.71;1746192;82;21020;-80
2022/05/27 11:31:25;;;;;;;4.58;1.30;;;;;;;13.66;84.35;100377.08;1746444;82;21024;-79
2022/05/27 11:33:56;;;;;;;2.58;1.22;;;;;;;13.72;84.24;100379.91;1746122;82;21249;-81
2022/05/27 11:36:44;;;;;;;4.55;1.30;;;;;;;13.71;83.82;100373.75;1740944;82;21060;-81
2022/05/27 11:40:00;;;;;;;3.37;1.30;;;;;;;13.77;83.75;100353.72;1746401;82;21015;-80
2022/05/27 11:43:07;;;;;;;3.05;1.17;;;;;;;13.84;83.83;100344.55;1710141;83;21044;-81
2022/05/27 11:45:43;;;;;;;2.52;1.20;;;;;;;13.97;83.70;100342.62;1718357;82;48359;-80
2022/05/27 11:48:22;;;;;;;2.25;1.22;;;;;;;14.03;83.44;100340.97;1710014;83;22169;-80
2022/05/27 11:51:17;;;;;;;2.15;1.27;;;;;;;14.21;83.52;100346.57;1744181;82;21058;-81
2022/05/27 11:54:23;;;;;;;5.25;1.37;;;;;;;14.52;83.84;100346.28;1710142;83;21114;-81
2022/05/27 11:57:15;;;;;;;3.12;1.20;;;;;;;14.86;83.42;100342.66;1710319;83;21096;-78
2022/05/27 11:59:57;;;;;;;2.60;0.90;;;;;;;15.20;83.09;100344.70;1710322;83;21052;-80
2022/05/27 12:02:50;;;;;;;3.67;1.47;;;;;;;15.42;82.43;100347.44;1710652;83;22137;-81
2022/05/27 12:05:30;;;;;;;3.58;1.15;;;;;;;16.01;83.43;100331.17;1710664;83;21032;-82
2022/05/27 12:08:35;;;;;;;2.55;1.40;;;;;;;16.51;82.60;100329.84;1711007;83;21021;-81
2022/05/27 12:11:29;;;;;;;2.17;1.10;;;;;;;17.03;82.33;100318.60;1711449;83;21502;-82
2022/05/27 12:14:04;;;;;;;4.97;1.60;;;;;;;17.35;80.57;100314.33;1711227;83;21056;-81
2022/05/27 12:16:37;;;;;;;2.87;1.40;;;;;;;17.44;80.11;100296.95;1702560;83;21881;-80
2022/05/27 12:19:25;;;;;;;3.40;1.42;;;;;;;17.64;79.69;100297.77;1710953;83;21043;-82
2022/05/27 12:22:12;;;;;;;5.08;1.67;;;;;;;17.74;78.61;100294.87;1711425;83;20992;-83
2022/05/27 12:24:45;;;;;;;5.33;1.40;;;;;;;17.54;77.41;100284.31;1709578;83;21032;-82
2022/05/27 12:27:16;;;;;;;5.00;1.55;;;;;;;17.14;76.15;100286.12;1711457;83;21013;-82
2022/05/27 12:29:47;;;;;;;3.77;1.32;;;;;;;16.85;75.89;100281.40;1710961;83;21068;-83
2022/05/27 12:32:16;;;;;;;3.45;1.20;;;;;;;16.69;75.75;100282.85;1711201;83;21024;-81
2022/05/27 12:34:50;;;;;;;3.98;1.40;;;;;;;16.55;75.69;100293.48;1711233;83;21099;-82
2022/05/27 12:37:26;;;;;;;4.15;1.40;;;;;;;16.48;75.51;100279.29;1711336;83;21474;-83